Time;durP1;ratioP1;P1;durP2;ratioP2;P2;SDS_P1;SDS_P2;PMS_P1;PMS_P2;Temp;Humidity;BMP_temperature;BMP_pressure;BME280_temperature;BME280_humidity;BME280_pressure;Samples;Min_cycle;Max_cycle;Signal;HPM_P1;HPM_P2
2022/07/11 00:01:00;;;;;;;5.63;2.60;;;;;;;;;;5019326;28;20082;-84
2022/07/11 00:03:25;;;;;;;2.77;2.10;;;;;;;;;;5018134;28;20431;-82
2022/07/11 00:05:50;;;;;;;2.95;2.08;;;;;;;;;;5006921;28;20287;-83
2022/07/11 00:08:15;;;;;;;3.07;1.80;;;;;;;;;;5005142;28;20029;-82
2022/07/11 00:10:41;;;;;;;4.88;2.17;;;;;;;;;;5002031;28;20725;-84
2022/07/11 00:13:06;;;;;;;3.65;2.30;;;;;;;;;;5001202;28;20034;-84
2022/07/11 00:15:31;;;;;;;3.65;1.88;;;;;;;;;;5025881;28;20017;-84
2022/07/11 00:17:57;;;;;;;5.90;2.63;;;;;;;;;;5002151;28;20141;-81
2022/07/11 00:20:22;;;;;;;2.35;2.10;;;;;;;;;;5023511;28;20090;-83
2022/07/11 00:22:47;;;;;;;4.05;2.03;;;;;;;;;;5019786;28;20038;-84
2022/07/11 00:25:12;;;;;;;5.40;2.23;;;;;;;;;;5004141;28;20045;-83
2022/07/11 00:27:38;;;;;;;6.05;2.30;;;;;;;;;;5018817;28;20311;-83
2022/07/11 00:30:03;;;;;;;5.72;2.38;;;;;;;;;;5019809;28;20019;-81
2022/07/11 00:32:28;;;;;;;4.82;2.63;;;;;;;;;;5019642;28;20021;-82
2022/07/11 00:34:54;;;;;;;2.83;2.53;;;;;;;;;;5017420;28;20082;-82
2022/07/11 00:37:19;;;;;;;4.13;2.50;;;;;;;;;;5022540;28;20037;-84
2022/07/11 00:39:44;;;;;;;7.45;2.95;;;;;;;;;;5019010;28;20048;-84
2022/07/11 00:42:10;;;;;;;4.22;2.58;;;;;;;;;;5019431;28;20375;-82
2022/07/11 00:44:36;;;;;;;6.50;2.65;;;;;;;;;;5018220;28;20018;-82
2022/07/11 00:47:01;;;;;;;6.53;2.53;;;;;;;;;;5020931;28;20117;-82
2022/07/11 00:49:26;;;;;;;5.85;2.35;;;;;;;;;;5016599;28;20049;-84
2022/07/11 00:51:51;;;;;;;7.00;2.75;;;;;;;;;;5018783;28;20060;-81
2022/07/11 00:54:18;;;;;;;5.40;2.78;;;;;;;;;;5021205;28;20554;-81
2022/07/11 00:56:44;;;;;;;4.25;2.72;;;;;;;;;;5017326;28;20561;-84
2022/07/11 00:59:09;;;;;;;5.85;2.65;;;;;;;;;;5014442;28;20202;-83
2022/07/11 01:01:37;;;;;;;5.15;3.40;;;;;;;;;;5016142;28;20029;-83
2022/07/11 01:04:02;;;;;;;5.00;3.40;;;;;;;;;;5021464;28;20025;-82
2022/07/11 01:06:28;;;;;;;5.50;2.80;;;;;;;;;;5022097;28;20103;-82
2022/07/11 01:08:53;;;;;;;5.65;3.28;;;;;;;;;;5025924;28;20481;-84
2022/07/11 01:11:18;;;;;;;5.22;2.83;;;;;;;;;;5019722;28;20405;-82
2022/07/11 01:13:45;;;;;;;8.65;3.10;;;;;;;;;;5016956;28;20128;-82
2022/07/11 01:16:14;;;;;;;5.97;3.03;;;;;;;;;;5002483;28;20026;-84
2022/07/11 01:19:06;;;;;;;7.43;2.80;;;;;;;;;;5022734;28;20029;-84
2022/07/11 01:21:35;;;;;;;4.85;3.30;;;;;;;;;;5015316;28;20141;-83
2022/07/11 01:24:01;;;;;;;5.28;2.85;;;;;;;;;;5020187;28;20038;-83
2022/07/11 01:26:27;;;;;;;6.38;3.15;;;;;;;;;;5019845;28;20045;-83
2022/07/11 01:28:53;;;;;;;6.28;2.65;;;;;;;;;;5001445;28;20041;-82
2022/07/11 01:31:19;;;;;;;5.57;3.25;;;;;;;;;;5018761;28;20371;-83
2022/07/11 01:33:44;;;;;;;6.45;3.38;;;;;;;;;;5021574;28;20369;-83
2022/07/11 01:36:09;;;;;;;7.97;3.53;;;;;;;;;;5015758;28;20026;-80
2022/07/11 01:38:35;;;;;;;4.25;3.08;;;;;;;;;;5017427;28;20533;-81
2022/07/11 01:41:01;;;;;;;5.78;2.92;;;;;;;;;;5022750;28;20032;-82
2022/07/11 01:43:26;;;;;;;5.68;3.03;;;;;;;;;;5018316;28;20029;-82
2022/07/11 01:45:52;;;;;;;6.25;4.05;;;;;;;;;;5016661;28;20033;-81
2022/07/11 01:48:18;;;;;;;8.07;3.53;;;;;;;;;;5023538;28;20071;-83
2022/07/11 01:50:43;;;;;;;5.82;3.63;;;;;;;;;;5006448;28;20044;-82
2022/07/11 01:53:08;;;;;;;6.72;3.83;;;;;;;;;;5023755;28;20029;-82
2022/07/11 01:55:33;;;;;;;9.65;4.47;;;;;;;;;;5023026;28;20026;-83
2022/07/11 01:57:58;;;;;;;7.27;3.53;;;;;;;;;;5019822;28;20030;-82
2022/07/11 02:00:24;;;;;;;5.35;3.78;;;;;;;;;;5015875;28;20290;-81
2022/07/11 02:02:49;;;;;;;8.27;3.53;;;;;;;;;;5021974;28;20531;-83
2022/07/11 02:05:14;;;;;;;4.95;3.25;;;;;;;;;;5009620;28;20045;-83
2022/07/11 02:10:28;;;;;;;12.25;3.42;;;;;;;;;;5021875;28;20103;-82
2022/07/11 02:12:54;;;;;;;5.22;3.13;;;;;;;;;;5022115;28;20024;-82
2022/07/11 02:15:19;;;;;;;6.53;3.70;;;;;;;;;;5003680;28;20025;-82
2022/07/11 02:17:44;;;;;;;9.38;3.60;;;;;;;;;;5014415;28;20328;-82
2022/07/11 02:20:09;;;;;;;6.45;3.70;;;;;;;;;;5007623;28;20018;-84
2022/07/11 02:22:35;;;;;;;10.95;4.78;;;;;;;;;;5001170;28;20083;-84
2022/07/11 02:25:00;;;;;;;6.32;3.60;;;;;;;;;;5002806;28;20707;-82
2022/07/11 02:27:25;;;;;;;9.27;3.63;;;;;;;;;;5019409;28;20553;-82
2022/07/11 02:29:50;;;;;;;9.18;3.70;;;;;;;;;;5015495;28;20033;-82
2022/07/11 02:32:16;;;;;;;7.05;3.58;;;;;;;;;;5018738;28;20470;-84
2022/07/11 02:34:41;;;;;;;7.88;4.05;;;;;;;;;;5016254;28;20074;-82
2022/07/11 02:37:10;;;;;;;7.57;4.20;;;;;;;;;;5010617;28;20359;-84
2022/07/11 02:39:35;;;;;;;9.65;4.43;;;;;;;;;;5020984;28;20278;-81
2022/07/11 02:42:00;;;;;;;7.53;5.03;;;;;;;;;;5022914;28;20088;-81
2022/07/11 02:44:26;;;;;;;6.50;3.80;;;;;;;;;;5025545;28;20465;-82
2022/07/11 02:46:51;;;;;;;7.85;4.00;;;;;;;;;;5026852;28;20239;-83
2022/07/11 02:49:16;;;;;;;8.25;4.35;;;;;;;;;;5021798;28;20512;-82
2022/07/11 02:51:41;;;;;;;9.35;4.28;;;;;;;;;;5004772;28;20080;-82
2022/07/11 02:54:07;;;;;;;5.63;3.87;;;;;;;;;;5022880;28;20384;-84
2022/07/11 02:56:32;;;;;;;5.80;3.83;;;;;;;;;;5025514;28;20278;-85
2022/07/11 02:58:58;;;;;;;7.78;3.85;;;;;;;;;;5022740;28;20394;-84
2022/07/11 03:01:23;;;;;;;8.98;4.75;;;;;;;;;;5020004;28;20087;-82
2022/07/11 03:03:48;;;;;;;9.02;4.05;;;;;;;;;;5009135;28;20175;-84
2022/07/11 03:06:13;;;;;;;9.23;5.10;;;;;;;;;;5003834;28;20115;-82
2022/07/11 03:08:39;;;;;;;9.50;3.05;;;;;;;;;;5001128;28;20034;-84
2022/07/11 03:11:05;;;;;;;6.05;3.58;;;;;;;;;;5019271;28;20391;-82
2022/07/11 03:13:30;;;;;;;4.85;2.58;;;;;;;;;;5003789;28;20040;-85
2022/07/11 03:15:56;;;;;;;5.30;3.53;;;;;;;;;;5003718;28;20034;-83
2022/07/11 03:18:21;;;;;;;4.28;2.92;;;;;;;;;;5001359;28;20072;-85
2022/07/11 03:20:46;;;;;;;6.07;2.85;;;;;;;;;;5017356;28;20030;-85
2022/07/11 03:23:11;;;;;;;8.20;2.88;;;;;;;;;;5004058;28;20379;-83
2022/07/11 03:25:36;;;;;;;5.30;2.83;;;;;;;;;;4999698;28;20060;-83
2022/07/11 03:28:02;;;;;;;9.13;3.28;;;;;;;;;;5000919;28;20397;-84
2022/07/11 03:30:27;;;;;;;6.15;4.07;;;;;;;;;;5017906;28;20502;-85
2022/07/11 03:32:52;;;;;;;4.65;3.20;;;;;;;;;;5005030;28;20100;-82
2022/07/11 03:38:02;;;;;;;5.72;3.35;;;;;;;;;;5000874;28;20044;-85
2022/07/11 03:40:27;;;;;;;6.00;3.30;;;;;;;;;;5017215;28;20105;-83
2022/07/11 03:42:53;;;;;;;5.20;2.65;;;;;;;;;;4998378;28;20032;-83
2022/07/11 03:45:18;;;;;;;6.68;4.00;;;;;;;;;;4997928;28;22139;-83
2022/07/11 03:47:43;;;;;;;7.65;3.15;;;;;;;;;;5012345;28;20080;-85
2022/07/11 03:50:08;;;;;;;7.63;3.03;;;;;;;;;;5004051;28;20405;-85
2022/07/11 03:52:34;;;;;;;8.38;3.17;;;;;;;;;;5016385;28;20477;-84
2022/07/11 03:54:59;;;;;;;9.20;3.28;;;;;;;;;;5001244;28;20022;-81
2022/07/11 03:57:24;;;;;;;8.75;3.08;;;;;;;;;;5007800;28;20034;-83
2022/07/11 03:59:52;;;;;;;4.20;2.90;;;;;;;;;;4999140;28;20038;-84
2022/07/11 04:02:21;;;;;;;6.97;3.75;;;;;;;;;;4995141;28;20189;-84
2022/07/11 04:04:47;;;;;;;8.63;3.85;;;;;;;;;;5002109;28;20072;-84
2022/07/11 04:07:12;;;;;;;7.53;3.45;;;;;;;;;;5016856;28;20066;-83
2022/07/11 04:09:37;;;;;;;5.80;3.60;;;;;;;;;;5003028;28;20025;-81
2022/07/11 04:12:03;;;;;;;7.88;4.03;;;;;;;;;;5019178;28;20142;-81
2022/07/11 04:14:28;;;;;;;7.70;4.03;;;;;;;;;;5020969;28;20032;-84
2022/07/11 04:16:53;;;;;;;9.43;4.10;;;;;;;;;;5003054;28;20030;-81
2022/07/11 04:19:18;;;;;;;9.43;3.70;;;;;;;;;;5003900;28;20029;-81
2022/07/11 04:21:44;;;;;;;7.72;3.88;;;;;;;;;;5022290;28;20061;-84
2022/07/11 04:24:09;;;;;;;4.50;3.08;;;;;;;;;;5019286;28;20037;-81
2022/07/11 04:26:34;;;;;;;4.28;3.08;;;;;;;;;;5002809;28;20065;-83
2022/07/11 04:28:59;;;;;;;6.47;3.05;;;;;;;;;;5002321;28;20033;-83
2022/07/11 04:31:25;;;;;;;5.13;2.92;;;;;;;;;;5018675;28;20024;-82
2022/07/11 04:33:51;;;;;;;5.75;3.10;;;;;;;;;;5024474;28;20080;-85
2022/07/11 04:36:16;;;;;;;8.55;3.55;;;;;;;;;;5008549;28;20064;-84
2022/07/11 04:38:43;;;;;;;6.60;2.58;;;;;;;;;;5010713;28;20335;-82
2022/07/11 04:41:09;;;;;;;5.90;2.75;;;;;;;;;;5010129;28;20386;-82
2022/07/11 04:43:36;;;;;;;4.43;2.55;;;;;;;;;;5023603;28;20111;-84
2022/07/11 04:46:02;;;;;;;4.93;3.30;;;;;;;;;;5009152;28;20030;-82
2022/07/11 04:48:30;;;;;;;5.85;3.33;;;;;;;;;;5026522;28;20515;-84
2022/07/11 04:50:56;;;;;;;3.67;2.50;;;;;;;;;;5022801;28;20057;-82
2022/07/11 04:53:21;;;;;;;4.82;2.85;;;;;;;;;;5008262;28;20136;-81
2022/07/11 04:55:46;;;;;;;3.88;2.50;;;;;;;;;;5025490;28;20306;-82
2022/07/11 04:58:11;;;;;;;5.78;2.70;;;;;;;;;;5025907;28;20101;-82
2022/07/11 05:00:37;;;;;;;2.92;2.38;;;;;;;;;;5020664;28;20026;-83
2022/07/11 05:03:02;;;;;;;4.60;2.40;;;;;;;;;;5012638;28;20033;-84
2022/07/11 05:05:28;;;;;;;6.03;2.72;;;;;;;;;;5026039;28;20049;-83
2022/07/11 05:07:53;;;;;;;4.88;3.00;;;;;;;;;;5022988;28;20041;-82
2022/07/11 05:10:18;;;;;;;4.97;2.58;;;;;;;;;;5026212;28;20025;-85
2022/07/11 05:12:44;;;;;;;5.13;2.70;;;;;;;;;;5026965;28;20556;-82
2022/07/11 05:15:09;;;;;;;5.47;2.50;;;;;;;;;;5006836;28;20432;-82
2022/07/11 05:17:35;;;;;;;4.15;2.65;;;;;;;;;;5006520;28;20029;-82
2022/07/11 05:20:01;;;;;;;4.00;2.90;;;;;;;;;;5006494;28;20025;-81
2022/07/11 05:22:26;;;;;;;4.70;2.55;;;;;;;;;;5006428;28;20076;-82
2022/07/11 05:24:52;;;;;;;4.88;2.30;;;;;;;;;;5006273;28;20407;-84
2022/07/11 05:27:17;;;;;;;5.80;2.13;;;;;;;;;;5007104;28;20603;-85
2022/07/11 05:29:42;;;;;;;2.13;1.63;;;;;;;;;;5011014;28;20025;-84
2022/07/11 05:32:08;;;;;;;2.67;1.98;;;;;;;;;;5025013;28;20421;-81
2022/07/11 05:34:36;;;;;;;3.40;1.73;;;;;;;;;;5019511;28;20472;-85
2022/07/11 05:37:01;;;;;;;6.72;3.58;;;;;;;;;;5021839;28;20473;-84
2022/07/11 05:39:27;;;;;;;3.55;1.90;;;;;;;;;;5020939;28;20075;-82
2022/07/11 05:41:52;;;;;;;4.10;1.27;;;;;;;;;;5020023;28;20035;-85
2022/07/11 05:44:18;;;;;;;2.47;1.40;;;;;;;;;;5016506;28;20057;-83
2022/07/11 05:46:44;;;;;;;2.85;1.10;;;;;;;;;;5017148;28;20041;-81
2022/07/11 05:49:09;;;;;;;2.38;1.08;;;;;;;;;;5025204;28;20032;-84
2022/07/11 05:51:34;;;;;;;2.08;0.95;;;;;;;;;;5020336;28;20182;-82
2022/07/11 05:53:59;;;;;;;1.48;1.10;;;;;;;;;;5015120;28;20021;-84
2022/07/11 05:56:27;;;;;;;1.27;1.10;;;;;;;;;;5020445;28;20021;-83
2022/07/11 05:58:53;;;;;;;1.73;1.00;;;;;;;;;;5019040;28;20037;-84
2022/07/11 06:01:18;;;;;;;1.38;1.10;;;;;;;;;;5002475;28;20372;-82
2022/07/11 06:03:44;;;;;;;1.40;1.10;;;;;;;;;;5019506;28;20394;-77
2022/07/11 06:06:10;;;;;;;0.80;0.70;;;;;;;;;;4996894;28;20159;-77
2022/07/11 06:08:42;;;;;;;12.90;1.83;;;;;;;;;;4996978;28;20800;-80
2022/07/11 06:11:14;;;;;;;2.45;1.10;;;;;;;;;;4983762;28;20486;-83
2022/07/11 06:13:40;;;;;;;3.10;1.15;;;;;;;;;;5027290;28;20095;-81
2022/07/11 06:16:06;;;;;;;2.88;1.10;;;;;;;;;;5027384;28;20040;-85
2022/07/11 06:18:32;;;;;;;3.35;1.33;;;;;;;;;;5030782;28;20389;-85
2022/07/11 06:20:57;;;;;;;1.38;1.00;;;;;;;;;;4987457;28;20799;-85
2022/07/11 06:23:22;;;;;;;2.75;0.90;;;;;;;;;;5032396;28;20032;-84
2022/07/11 06:25:49;;;;;;;1.50;1.20;;;;;;;;;;5024372;28;20037;-82
2022/07/11 06:28:14;;;;;;;2.05;1.15;;;;;;;;;;5006817;28;20021;-84
2022/07/11 06:30:39;;;;;;;2.72;0.80;;;;;;;;;;5024698;28;20033;-78
2022/07/11 06:33:05;;;;;;;1.75;1.10;;;;;;;;;;5024318;28;20049;-78
2022/07/11 06:35:30;;;;;;;1.90;1.20;;;;;;;;;;5017930;28;20040;-80
2022/07/11 06:37:56;;;;;;;4.05;1.00;;;;;;;;;;5022344;28;20087;-80
2022/07/11 06:40:21;;;;;;;2.35;0.93;;;;;;;;;;5022419;28;20510;-85
2022/07/11 06:42:47;;;;;;;2.05;0.80;;;;;;;;;;5021635;28;20033;-79
2022/07/11 06:45:12;;;;;;;2.45;0.88;;;;;;;;;;5022624;28;20059;-84
2022/07/11 06:47:38;;;;;;;3.38;1.17;;;;;;;;;;5021677;28;20054;-85
2022/07/11 06:50:03;;;;;;;2.00;1.05;;;;;;;;;;5029532;28;20064;-84
2022/07/11 06:52:29;;;;;;;3.08;1.70;;;;;;;;;;5024014;28;20472;-79
2022/07/11 06:54:54;;;;;;;2.95;1.23;;;;;;;;;;5022199;28;20028;-78
2022/07/11 06:57:19;;;;;;;1.77;1.02;;;;;;;;;;5003188;28;20048;-79
2022/07/11 06:59:44;;;;;;;3.13;1.35;;;;;;;;;;5017931;28;20025;-79
2022/07/11 07:02:10;;;;;;;4.75;1.30;;;;;;;;;;5001682;28;20100;-85
2022/07/11 07:04:35;;;;;;;2.20;1.05;;;;;;;;;;5004881;28;20033;-85
2022/07/11 07:07:01;;;;;;;1.83;1.13;;;;;;;;;;5027524;28;20026;-78
2022/07/11 07:09:27;;;;;;;2.08;1.00;;;;;;;;;;5031575;28;20029;-85
2022/07/11 07:11:52;;;;;;;1.25;1.08;;;;;;;;;;5023379;28;20021;-79
2022/07/11 07:14:17;;;;;;;0.80;0.80;;;;;;;;;;5023210;28;20025;-78
2022/07/11 07:16:42;;;;;;;1.55;1.17;;;;;;;;;;5001670;28;20037;-80
2022/07/11 07:19:08;;;;;;;1.02;0.93;;;;;;;;;;5006694;28;20128;-83
2022/07/11 07:21:33;;;;;;;1.30;0.95;;;;;;;;;;5015103;28;20121;-85
2022/07/11 07:23:58;;;;;;;1.33;1.00;;;;;;;;;;5017057;28;20088;-84
2022/07/11 07:26:24;;;;;;;3.67;1.00;;;;;;;;;;4998963;28;20473;-85
2022/07/11 07:28:49;;;;;;;2.30;1.00;;;;;;;;;;4997565;28;20467;-81
2022/07/11 07:31:14;;;;;;;1.45;0.95;;;;;;;;;;4999545;28;20029;-83
2022/07/11 07:33:40;;;;;;;2.17;1.15;;;;;;;;;;4998533;28;20028;-83
2022/07/11 07:36:05;;;;;;;1.40;0.88;;;;;;;;;;5016875;28;20056;-78
2022/07/11 07:38:30;;;;;;;2.38;0.80;;;;;;;;;;5000386;28;20108;-78
2022/07/11 07:40:55;;;;;;;4.65;0.80;;;;;;;;;;4996227;28;20044;-82
2022/07/11 07:43:21;;;;;;;2.40;0.85;;;;;;;;;;5001658;28;20026;-82
2022/07/11 07:45:47;;;;;;;1.52;0.85;;;;;;;;;;5019718;28;22426;-79
2022/07/11 07:48:12;;;;;;;2.92;0.77;;;;;;;;;;5016565;28;20380;-85
2022/07/11 07:50:37;;;;;;;0.95;0.60;;;;;;;;;;5024240;28;20031;-85
2022/07/11 07:53:02;;;;;;;0.63;0.57;;;;;;;;;;5021612;28;20041;-84
2022/07/11 07:55:28;;;;;;;1.30;1.20;;;;;;;;;;5016913;28;20024;-79
2022/07/11 07:57:53;;;;;;;0.85;0.70;;;;;;;;;;5002356;28;20432;-78
2022/07/11 08:03:03;;;;;;;0.30;0.30;;;;;;;;;;5019919;28;20413;-78
2022/07/11 08:05:31;;;;;;;1.13;0.68;;;;;;;;;;5021547;28;20045;-80
2022/07/11 08:07:56;;;;;;;1.33;0.65;;;;;;;;;;5022205;28;20037;-84
2022/07/11 08:10:22;;;;;;;2.20;0.60;;;;;;;;;;5011313;28;20049;-80
2022/07/11 08:12:47;;;;;;;1.20;0.55;;;;;;;;;;5009140;28;20271;-80
2022/07/11 08:15:12;;;;;;;1.00;0.50;;;;;;;;;;5011240;28;20029;-79
2022/07/11 08:17:37;;;;;;;1.02;0.68;;;;;;;;;;5027448;28;20040;-84
2022/07/11 08:20:06;;;;;;;0.75;0.50;;;;;;;;;;5011103;28;20038;-85
2022/07/11 08:22:31;;;;;;;0.57;0.50;;;;;;;;;;5006403;28;20034;-85
2022/07/11 08:24:56;;;;;;;0.50;0.35;;;;;;;;;;5028679;28;20477;-78
2022/07/11 08:27:21;;;;;;;1.20;0.47;;;;;;;;;;5009614;28;20021;-86
2022/07/11 08:29:46;;;;;;;0.50;0.40;;;;;;;;;;5012357;28;20040;-80
2022/07/11 08:32:12;;;;;;;0.40;0.40;;;;;;;;;;5026077;28;20022;-85
2022/07/11 08:34:37;;;;;;;0.40;0.40;;;;;;;;;;5025490;28;20258;-79
2022/07/11 08:37:03;;;;;;;0.95;0.55;;;;;;;;;;5009277;28;20045;-79
2022/07/11 08:39:29;;;;;;;0.60;0.43;;;;;;;;;;5026389;28;20032;-79
2022/07/11 08:41:54;;;;;;;1.50;0.60;;;;;;;;;;5009215;28;20116;-85
2022/07/11 08:44:19;;;;;;;0.63;0.47;;;;;;;;;;5026691;28;20389;-78
2022/07/11 08:46:45;;;;;;;0.75;0.50;;;;;;;;;;5023180;28;20568;-78
2022/07/11 08:49:11;;;;;;;3.28;1.50;;;;;;;;;;5026750;28;20075;-84
2022/07/11 08:51:37;;;;;;;1.80;0.60;;;;;;;;;;5025290;28;20108;-78
2022/07/11 08:54:03;;;;;;;0.50;0.40;;;;;;;;;;5027393;28;20497;-78
2022/07/11 08:56:29;;;;;;;1.00;0.50;;;;;;;;;;5010672;28;20026;-79
2022/07/11 08:58:54;;;;;;;0.93;0.50;;;;;;;;;;5013324;28;20030;-85
2022/07/11 09:01:25;;;;;;;0.65;0.40;;;;;;;;;;5012190;28;20072;-86
2022/07/11 09:03:51;;;;;;;0.80;0.60;;;;;;;;;;5027822;28;20041;-85
2022/07/11 09:06:16;;;;;;;0.70;0.60;;;;;;;;;;5031819;28;20068;-79
2022/07/11 09:08:41;;;;;;;1.20;0.70;;;;;;;;;;5012347;28;20025;-82
2022/07/11 09:11:07;;;;;;;1.25;0.90;;;;;;;;;;5017912;28;20279;-85
2022/07/11 09:13:32;;;;;;;1.20;0.60;;;;;;;;;;5008974;28;20033;-79
2022/07/11 09:16:02;;;;;;;0.90;0.65;;;;;;;;;;5031055;28;20025;-80
2022/07/11 09:18:35;;;;;;;1.90;0.70;;;;;;;;;;5027895;28;20064;-84
2022/07/11 09:26:36;;;;;;;6.30;1.02;;;;;;;;;;5030140;28;20029;-79
2022/07/11 09:29:05;;;;;;;1.38;0.55;;;;;;;;;;5027835;28;20040;-79
2022/07/11 09:31:31;;;;;;;0.88;0.75;;;;;;;;;;5027166;28;20600;-84
2022/07/11 09:34:16;;;;;;;1.77;0.98;;;;;;;;;;5004352;28;20033;-79
2022/07/11 09:36:43;;;;;;;1.50;0.70;;;;;;;;;;5012532;28;20119;-80
2022/07/11 09:39:10;;;;;;;2.17;0.80;;;;;;;;;;5015156;28;20030;-79
2022/07/11 09:41:35;;;;;;;2.45;0.60;;;;;;;;;;5029969;28;20432;-85
2022/07/11 09:44:07;;;;;;;0.80;0.60;;;;;;;;;;5031475;28;20594;-82
2022/07/11 09:46:32;;;;;;;0.60;0.45;;;;;;;;;;5008203;28;20052;-85
2022/07/11 09:48:59;;;;;;;0.93;0.60;;;;;;;;;;5009210;28;20029;-84
2022/07/11 09:51:25;;;;;;;0.75;0.50;;;;;;;;;;5026040;28;20032;-85
2022/07/11 09:53:55;;;;;;;0.40;0.40;;;;;;;;;;5029078;28;20014;-80
2022/07/11 09:56:23;;;;;;;0.52;0.50;;;;;;;;;;5009252;28;20021;-79
2022/07/11 09:58:57;;;;;;;1.30;0.50;;;;;;;;;;5013279;28;20497;-79
2022/07/11 10:01:23;;;;;;;0.45;0.43;;;;;;;;;;5031689;28;20374;-79
2022/07/11 10:03:48;;;;;;;0.50;0.43;;;;;;;;;;5007915;28;20121;-86
2022/07/11 10:06:13;;;;;;;1.55;0.50;;;;;;;;;;5006487;28;20046;-79
2022/07/11 10:08:39;;;;;;;1.95;0.75;;;;;;;;;;5028276;28;20029;-79
2022/07/11 10:11:04;;;;;;;0.60;0.57;;;;;;;;;;5023957;28;20025;-80
2022/07/11 10:13:29;;;;;;;1.52;0.50;;;;;;;;;;5027775;28;20075;-79
2022/07/11 10:15:55;;;;;;;0.57;0.50;;;;;;;;;;5007737;28;20394;-79
2022/07/11 10:18:40;;;;;;;0.50;0.50;;;;;;;;;;5008078;28;20470;-79
2022/07/11 10:21:15;;;;;;;0.77;0.60;;;;;;;;;;5010600;28;20039;-84
2022/07/11 10:23:40;;;;;;;0.47;0.40;;;;;;;;;;5023448;28;20029;-80
2022/07/11 10:26:08;;;;;;;1.43;0.50;;;;;;;;;;5021182;28;20021;-84
2022/07/11 10:28:44;;;;;;;0.93;0.65;;;;;;;;;;5028453;28;20358;-79
2022/07/11 10:31:22;;;;;;;1.00;0.50;;;;;;;;;;5018033;28;20037;-85
2022/07/11 10:34:00;;;;;;;0.98;0.52;;;;;;;;;;5023926;28;20053;-79
2022/07/11 10:36:29;;;;;;;2.17;0.65;;;;;;;;;;5031549;28;20033;-85
2022/07/11 10:39:12;;;;;;;0.50;0.40;;;;;;;;;;5012834;28;20297;-78
2022/07/11 10:41:38;;;;;;;0.73;0.60;;;;;;;;;;5009417;28;20128;-80
2022/07/11 10:44:06;;;;;;;0.70;0.50;;;;;;;;;;5027326;28;20108;-85
2022/07/11 10:46:32;;;;;;;0.50;0.50;;;;;;;;;;5026956;28;20029;-79
2022/07/11 10:49:12;;;;;;;0.80;0.70;;;;;;;;;;5030748;28;20026;-83
2022/07/11 10:51:38;;;;;;;3.17;0.70;;;;;;;;;;5025632;28;20123;-79
2022/07/11 10:54:26;;;;;;;0.60;0.60;;;;;;;;;;5025289;28;20033;-85
2022/07/11 10:57:06;;;;;;;1.17;0.77;;;;;;;;;;5028533;28;20848;-78
2022/07/11 10:59:31;;;;;;;2.38;0.75;;;;;;;;;;5028727;28;20111;-85
2022/07/11 11:02:06;;;;;;;0.60;0.60;;;;;;;;;;5004919;28;20586;-85
2022/07/11 11:04:43;;;;;;;1.25;0.70;;;;;;;;;;5025391;28;20041;-79
2022/07/11 11:07:27;;;;;;;0.93;0.93;;;;;;;;;;5027598;28;20401;-78
2022/07/11 11:09:52;;;;;;;1.15;0.60;;;;;;;;;;5028509;28;20551;-79
2022/07/11 11:12:17;;;;;;;0.75;0.75;;;;;;;;;;5008870;28;20025;-79
2022/07/11 11:14:46;;;;;;;1.33;1.05;;;;;;;;;;5029912;28;20017;-84
2022/07/11 11:17:35;;;;;;;1.90;0.80;;;;;;;;;;5039391;28;20030;-85
2022/07/11 11:20:01;;;;;;;1.67;0.65;;;;;;;;;;5009693;28;20183;-80
2022/07/11 11:22:28;;;;;;;2.03;1.08;;;;;;;;;;5033270;28;20030;-84
2022/07/11 11:24:54;;;;;;;1.95;0.70;;;;;;;;;;5030398;28;20040;-82
2022/07/11 11:27:26;;;;;;;1.05;0.80;;;;;;;;;;5019270;28;20385;-79
2022/07/11 11:29:55;;;;;;;2.33;0.82;;;;;;;;;;5027766;28;20043;-85
2022/07/11 11:32:21;;;;;;;2.95;0.88;;;;;;;;;;5022884;28;20038;-82
2022/07/11 11:34:46;;;;;;;0.98;0.82;;;;;;;;;;5027755;28;20030;-85
2022/07/11 11:37:14;;;;;;;1.55;0.90;;;;;;;;;;5030054;28;20997;-84
2022/07/11 11:39:39;;;;;;;1.70;0.85;;;;;;;;;;4987979;28;20026;-78
2022/07/11 11:42:15;;;;;;;1.73;1.00;;;;;;;;;;5024643;28;20021;-84
2022/07/11 11:45:16;;;;;;;1.30;1.00;;;;;;;;;;5023639;28;20087;-80
2022/07/11 11:47:48;;;;;;;2.55;1.25;;;;;;;;;;4963007;28;20027;-78
2022/07/11 11:50:14;;;;;;;0.95;0.75;;;;;;;;;;5006370;28;20506;-83
2022/07/11 11:52:40;;;;;;;1.25;1.15;;;;;;;;;;5020613;28;20036;-83
2022/07/11 11:55:06;;;;;;;2.45;1.00;;;;;;;;;;5017747;28;20489;-85
2022/07/11 11:57:32;;;;;;;2.35;1.08;;;;;;;;;;5000337;28;20032;-80
2022/07/11 11:59:57;;;;;;;1.75;1.10;;;;;;;;;;5016916;28;20437;-77
2022/07/11 12:02:27;;;;;;;1.35;1.00;;;;;;;;;;5004869;28;20036;-81
2022/07/11 12:04:52;;;;;;;1.30;1.20;;;;;;;;;;5009270;28;20049;-81
2022/07/11 12:07:22;;;;;;;1.42;1.10;;;;;;;;;;5025503;28;20037;-77
2022/07/11 12:09:51;;;;;;;1.33;1.00;;;;;;;;;;5004769;28;20109;-80
2022/07/11 12:15:02;;;;;;;1.63;1.00;;;;;;;;;;5024017;28;20040;-82
2022/07/11 12:17:29;;;;;;;2.40;1.17;;;;;;;;;;5018973;28;20433;-82
2022/07/11 12:19:54;;;;;;;1.05;0.95;;;;;;;;;;5019352;28;20021;-80
2022/07/11 12:22:19;;;;;;;1.95;1.33;;;;;;;;;;5022781;28;20543;-79
2022/07/11 12:24:49;;;;;;;1.20;1.10;;;;;;;;;;5003236;28;20107;-81
2022/07/11 12:27:22;;;;;;;1.67;1.33;;;;;;;;;;5019207;28;20029;-78
2022/07/11 12:29:50;;;;;;;2.55;1.30;;;;;;;;;;5021292;28;20034;-78
2022/07/11 12:32:17;;;;;;;1.17;0.93;;;;;;;;;;5025988;28;20076;-77
2022/07/11 12:34:46;;;;;;;2.25;1.17;;;;;;;;;;5025058;28;20104;-80
2022/07/11 12:37:12;;;;;;;0.98;0.88;;;;;;;;;;5001827;28;20057;-80
2022/07/11 12:39:39;;;;;;;1.10;1.00;;;;;;;;;;5019605;28;20144;-79
2022/07/11 12:42:46;;;;;;;2.90;1.08;;;;;;;;;;5017549;28;20037;-82
2022/07/11 12:45:12;;;;;;;1.10;0.90;;;;;;;;;;4919037;29;20804;-79
2022/07/11 12:47:41;;;;;;;3.40;2.40;;;;;;;;;;4922908;29;20040;-79
2022/07/11 12:50:10;;;;;;;2.85;1.05;;;;;;;;;;4967449;28;20041;-79
2022/07/11 12:52:36;;;;;;;1.73;1.17;;;;;;;;;;5020150;28;20389;-82
2022/07/11 12:55:01;;;;;;;1.90;1.00;;;;;;;;;;5000796;28;20041;-82
2022/07/11 12:57:26;;;;;;;1.38;0.80;;;;;;;;;;5019808;28;20032;-79
2022/07/11 12:59:51;;;;;;;0.80;0.73;;;;;;;;;;5020681;28;20028;-79
2022/07/11 13:02:26;;;;;;;1.20;0.80;;;;;;;;;;5002338;28;20475;-80
2022/07/11 13:04:52;;;;;;;1.45;0.80;;;;;;;;;;5018533;28;20337;-82
2022/07/11 13:10:21;;;;;;;1.48;1.10;;;;;;;;;;5023995;28;20052;-84
2022/07/11 13:12:47;;;;;;;1.85;0.70;;;;;;;;;;5024691;28;20254;-84
2022/07/11 13:15:15;;;;;;;2.05;1.30;;;;;;;;;;5025520;28;20493;-82
2022/07/11 13:17:40;;;;;;;2.08;1.65;;;;;;;;;;5032101;28;20022;-83
2022/07/11 13:20:06;;;;;;;0.75;0.73;;;;;;;;;;5009929;28;20515;-81
2022/07/11 13:22:32;;;;;;;0.50;0.50;;;;;;;;;;5020280;28;20043;-82
2022/07/11 13:24:57;;;;;;;1.20;0.63;;;;;;;;;;5011443;28;20025;-83
2022/07/11 13:27:23;;;;;;;2.65;0.73;;;;;;;;;;5006961;28;20283;-84
2022/07/11 13:29:51;;;;;;;1.10;0.80;;;;;;;;;;5012376;28;20158;-81
2022/07/11 13:32:17;;;;;;;1.42;1.23;;;;;;;;;;5019140;28;20564;-81
2022/07/11 13:34:42;;;;;;;0.80;0.70;;;;;;;;;;5007186;28;20030;-84
2022/07/11 13:37:07;;;;;;;1.25;1.15;;;;;;;;;;5031653;28;20108;-81
2022/07/11 13:39:33;;;;;;;1.35;1.02;;;;;;;;;;5007511;28;20033;-83
2022/07/11 13:41:58;;;;;;;1.98;0.85;;;;;;;;;;5010971;28;20033;-84
2022/07/11 13:44:23;;;;;;;1.63;0.80;;;;;;;;;;5027426;28;20039;-81
2022/07/11 13:46:48;;;;;;;1.95;1.15;;;;;;;;;;5028006;28;20394;-85
2022/07/11 13:49:14;;;;;;;1.15;0.82;;;;;;;;;;5023445;28;20022;-83
2022/07/11 13:51:39;;;;;;;1.02;0.80;;;;;;;;;;5028634;28;20022;-80
2022/07/11 13:54:05;;;;;;;2.60;0.77;;;;;;;;;;5031360;28;20061;-84
2022/07/11 13:56:30;;;;;;;1.23;0.60;;;;;;;;;;5011105;28;20033;-80
2022/07/11 13:58:55;;;;;;;3.00;1.02;;;;;;;;;;5011632;28;20035;-82
2022/07/11 14:01:20;;;;;;;1.00;0.70;;;;;;;;;;5033139;28;20091;-80
2022/07/11 14:03:46;;;;;;;1.30;0.98;;;;;;;;;;5000029;28;20025;-82
2022/07/11 14:06:11;;;;;;;1.58;0.98;;;;;;;;;;5020240;28;20045;-82
2022/07/11 14:08:36;;;;;;;2.03;1.08;;;;;;;;;;5020033;28;20026;-81
2022/07/11 14:11:02;;;;;;;2.17;1.00;;;;;;;;;;5020180;28;20041;-83
2022/07/11 14:13:27;;;;;;;1.83;0.90;;;;;;;;;;5022361;28;20366;-83
2022/07/11 14:15:52;;;;;;;2.28;0.90;;;;;;;;;;5004280;28;20068;-82
2022/07/11 14:18:18;;;;;;;1.92;0.82;;;;;;;;;;5005023;28;20067;-83
2022/07/11 14:20:43;;;;;;;1.08;0.80;;;;;;;;;;5021933;28;20029;-84
2022/07/11 14:23:08;;;;;;;1.98;1.02;;;;;;;;;;5022684;28;20033;-83
2022/07/11 14:25:33;;;;;;;3.03;1.05;;;;;;;;;;5017192;28;20457;-82
2022/07/11 14:27:59;;;;;;;2.20;1.10;;;;;;;;;;5022992;28;20029;-82
2022/07/11 14:30:24;;;;;;;1.10;0.80;;;;;;;;;;5025255;28;20037;-83
2022/07/11 14:32:54;;;;;;;1.35;1.05;;;;;;;;;;5005084;28;20580;-83
2022/07/11 14:35:20;;;;;;;3.53;1.00;;;;;;;;;;5022821;28;20084;-84
2022/07/11 14:37:45;;;;;;;3.50;1.15;;;;;;;;;;5023314;28;20022;-84
2022/07/11 14:40:11;;;;;;;3.78;1.20;;;;;;;;;;5025815;28;20442;-82
2022/07/11 14:42:36;;;;;;;2.10;0.95;;;;;;;;;;5008591;28;20029;-83
2022/07/11 14:45:01;;;;;;;1.60;0.70;;;;;;;;;;5008869;28;20041;-82
2022/07/11 14:47:27;;;;;;;3.33;1.17;;;;;;;;;;5004727;28;20473;-81
2022/07/11 14:49:52;;;;;;;1.52;1.15;;;;;;;;;;5001127;28;20036;-81
2022/07/11 14:52:18;;;;;;;2.55;1.40;;;;;;;;;;5003827;28;20041;-81
2022/07/11 14:54:43;;;;;;;1.48;1.38;;;;;;;;;;5020756;28;20107;-82
2022/07/11 14:57:10;;;;;;;3.00;1.40;;;;;;;;;;5020891;28;20473;-83
2022/07/11 14:59:35;;;;;;;1.25;1.15;;;;;;;;;;5018477;28;20356;-83